createdAt,value
2019-04-06T00:01:11.851Z,1.70
2019-04-06T00:03:41.520Z,1.60
2019-04-06T00:06:11.460Z,1.70
2019-04-06T00:08:43.207Z,1.60
2019-04-06T00:11:16.841Z,1.50
2019-04-06T00:13:54.184Z,1.50
2019-04-06T00:16:28.727Z,1.50
2019-04-06T00:19:00.714Z,1.50
2019-04-06T00:21:33.258Z,1.50
2019-04-06T00:24:04.647Z,1.30
2019-04-06T00:26:36.119Z,1.30
2019-04-06T00:29:10.912Z,1.30
2019-04-06T00:32:03.612Z,1.40
2019-04-06T00:34:39.190Z,1.30
2019-04-06T00:37:13.723Z,1.40
2019-04-06T00:39:46.904Z,1.40
2019-04-06T00:42:18.333Z,1.40
2019-04-06T00:44:51.952Z,1.40
2019-04-06T00:47:24.090Z,1.40
2019-04-06T00:49:58.349Z,1.50
2019-04-06T00:52:34.248Z,1.50
2019-04-06T00:55:08.464Z,1.60
2019-04-06T00:57:42.294Z,1.70
2019-04-06T01:00:19.128Z,1.60
2019-04-06T01:02:51.182Z,1.70
2019-04-06T01:05:24.616Z,1.80
2019-04-06T01:07:57.724Z,1.80
2019-04-06T01:10:28.569Z,1.80
2019-04-06T01:13:03.886Z,2.00
2019-04-06T01:15:38.418Z,2.10
2019-04-06T01:18:17.938Z,2.30
2019-04-06T01:20:51.477Z,2.30
2019-04-06T01:23:22.884Z,2.30
2019-04-06T01:26:06.985Z,2.20
2019-04-06T01:28:32.365Z,2.20
2019-04-06T01:31:07.353Z,2.20
2019-04-06T01:33:40.783Z,2.20
2019-04-06T01:36:20.834Z,2.20
2019-04-06T01:41:43.137Z,2.20
2019-04-06T01:44:24.838Z,2.20
2019-04-06T01:46:56.854Z,2.20
2019-04-06T01:49:32.734Z,2.20
2019-04-06T01:52:06.088Z,2.10
2019-04-06T01:54:40.760Z,2.10
2019-04-06T01:57:12.324Z,2.00
2019-04-06T01:59:47.288Z,2.00
2019-04-06T02:02:25.482Z,1.90
2019-04-06T02:04:59.123Z,1.90
2019-04-06T02:07:30.384Z,2.00
2019-04-06T02:10:00.524Z,2.00
2019-04-06T02:12:31.689Z,2.10
2019-04-06T02:15:04.212Z,2.00
2019-04-06T02:17:37.577Z,2.10
2019-04-06T02:20:09.229Z,2.20
2019-04-06T02:22:44.897Z,2.10
2019-04-06T02:25:22.427Z,2.10
2019-04-06T02:27:54.022Z,2.10
2019-04-06T02:30:37.312Z,2.00
2019-04-06T02:33:46.418Z,2.10
2019-04-06T02:36:40.981Z,2.10
2019-04-06T02:39:31.941Z,2.10
2019-04-06T02:42:17.233Z,2.10
2019-04-06T02:45:07.912Z,2.10
2019-04-06T02:47:37.860Z,2.10
2019-04-06T02:50:07.614Z,2.10
2019-04-06T02:52:40.232Z,2.10
2019-04-06T02:55:12.829Z,2.00
2019-04-06T02:57:47.298Z,2.00
2019-04-06T03:00:21.233Z,2.00
2019-04-06T03:02:53.708Z,1.90
2019-04-06T03:05:29.446Z,1.90
2019-04-06T03:08:24.557Z,1.80
2019-04-06T03:11:00.104Z,1.80
2019-04-06T03:13:34.714Z,1.80
2019-04-06T03:16:08.541Z,1.80
2019-04-06T03:18:41.092Z,1.90
2019-04-06T03:21:13.614Z,1.80
2019-04-06T03:23:51.593Z,1.80
2019-04-06T03:26:23.396Z,1.70
2019-04-06T03:28:55.815Z,1.60
2019-04-06T03:31:27.986Z,1.50
2019-04-06T03:34:00.816Z,1.70
2019-04-06T03:36:37.534Z,1.60
2019-04-06T03:39:09.477Z,1.70
2019-04-06T03:41:43.256Z,1.70
2019-04-06T03:44:17.744Z,1.60
2019-04-06T03:46:52.174Z,1.60
2019-04-06T03:49:24.523Z,1.60
2019-04-06T03:51:59.391Z,1.60
2019-04-06T03:54:33.623Z,1.50
2019-04-06T03:57:14.524Z,1.50
2019-04-06T03:59:38.676Z,1.60
2019-04-06T04:02:13.210Z,1.60
2019-04-06T04:04:47.150Z,1.50
2019-04-06T04:07:20.635Z,1.40
2019-04-06T04:09:55.251Z,1.40
2019-04-06T04:12:32.569Z,1.30
2019-04-06T04:15:05.026Z,1.20
2019-04-06T04:17:37.577Z,1.10
2019-04-06T04:20:09.751Z,0.90
2019-04-06T04:22:39.918Z,0.90
2019-04-06T04:25:12.783Z,0.80
2019-04-06T04:27:46.806Z,0.80
2019-04-06T04:30:31.477Z,0.70
2019-04-06T04:32:53.508Z,0.60
2019-04-06T04:35:25.290Z,0.60
2019-04-06T04:37:58.915Z,0.70
2019-04-06T04:40:30.457Z,0.70
2019-04-06T04:43:02.369Z,0.80
2019-04-06T04:45:35.691Z,0.70
2019-04-06T04:48:08.889Z,0.80
2019-04-06T04:50:41.743Z,0.70
2019-04-06T04:53:17.432Z,0.70
2019-04-06T04:55:49.990Z,0.60
2019-04-06T04:58:22.441Z,0.70
2019-04-06T05:00:56.978Z,0.70
2019-04-06T05:03:29.547Z,0.80
2019-04-06T05:06:00.259Z,0.90
2019-04-06T05:08:32.572Z,1.30
2019-04-06T05:11:04.606Z,1.30
2019-04-06T05:13:38.538Z,1.40
2019-04-06T05:16:14.857Z,1.50
2019-04-06T05:18:52.460Z,1.70
2019-04-06T05:21:24.068Z,1.80
2019-04-06T05:23:58.598Z,1.90
2019-04-06T05:26:37.530Z,1.90
2019-04-06T05:29:05.364Z,2.00
2019-04-06T05:31:40.099Z,2.00
2019-04-06T05:34:16.152Z,2.20
2019-04-06T05:36:46.768Z,2.30
2019-04-06T05:39:22.873Z,2.30
2019-04-06T05:41:58.635Z,2.40
2019-04-06T05:44:31.088Z,2.60
2019-04-06T05:47:05.128Z,2.70
2019-04-06T05:49:37.734Z,2.80
2019-04-06T05:52:10.408Z,2.90
2019-04-06T05:54:46.895Z,3.00
2019-04-06T05:57:37.239Z,3.00
2019-04-06T06:00:11.266Z,3.10
2019-04-06T06:02:42.651Z,3.20
2019-04-06T06:05:14.436Z,3.20
2019-04-06T06:07:45.904Z,3.30
2019-04-06T06:10:19.807Z,3.50
2019-04-06T06:12:51.540Z,3.60
2019-04-06T06:15:22.553Z,3.70
2019-04-06T06:17:55.061Z,3.90
2019-04-06T06:20:28.104Z,3.90
2019-04-06T06:23:02.377Z,4.10
2019-04-06T06:25:34.250Z,4.00
2019-04-06T06:28:14.936Z,4.10
2019-04-06T06:30:44.406Z,4.30
2019-04-06T06:33:18.974Z,4.40
2019-04-06T06:35:50.931Z,4.40
2019-04-06T06:38:22.597Z,4.50
2019-04-06T06:40:58.100Z,4.50
2019-04-06T06:43:29.481Z,4.80
2019-04-06T06:46:00.728Z,4.80
2019-04-06T06:48:32.197Z,4.80
2019-04-06T06:51:06.741Z,4.90
2019-04-06T06:53:39.458Z,5.10
2019-04-06T06:56:12.205Z,5.00
2019-04-06T06:58:46.868Z,5.00
2019-04-06T07:01:18.237Z,5.10
2019-04-06T07:03:50.568Z,5.10
2019-04-06T07:06:23.147Z,5.20
2019-04-06T07:08:54.215Z,5.40
2019-04-06T07:11:24.289Z,5.40
2019-04-06T07:13:55.238Z,5.40
2019-04-06T07:16:26.290Z,5.50
2019-04-06T07:18:58.014Z,5.60
2019-04-06T07:21:29.252Z,5.70
2019-04-06T07:24:01.311Z,5.70
2019-04-06T07:26:32.440Z,5.90
2019-04-06T07:29:02.776Z,5.90
2019-04-06T07:31:35.989Z,5.90
2019-04-06T07:34:10.744Z,5.90
2019-04-06T07:36:43.806Z,6.10
2019-04-06T07:39:15.784Z,6.40
2019-04-06T07:41:48.416Z,6.40
2019-04-06T07:44:21.268Z,6.30
2019-04-06T07:46:53.378Z,6.30
2019-04-06T07:49:22.913Z,6.40
2019-04-06T07:51:53.464Z,6.30
2019-04-06T07:54:25.947Z,6.10
2019-04-06T07:57:00.250Z,5.80
2019-04-06T07:59:31.036Z,5.90
2019-04-06T08:02:01.157Z,6.00
2019-04-06T08:04:35.112Z,6.10
2019-04-06T08:07:08.951Z,6.30
2019-04-06T08:09:41.404Z,6.40
2019-04-06T08:12:14.006Z,6.50
2019-04-06T08:14:45.808Z,6.40
2019-04-06T08:17:18.630Z,6.50
2019-04-06T08:19:51.223Z,6.80
2019-04-06T08:22:20.227Z,6.60
2019-04-06T08:24:52.216Z,6.70
2019-04-06T08:27:29.832Z,6.70
2019-04-06T08:30:01.805Z,6.70
2019-04-06T08:32:34.704Z,6.70
2019-04-06T08:35:05.362Z,6.80
2019-04-06T08:37:36.745Z,6.80
2019-04-06T08:40:09.120Z,6.80
2019-04-06T08:42:41.945Z,6.80
2019-04-06T08:45:14.498Z,6.80
2019-04-06T08:47:49.893Z,6.80
2019-04-06T08:50:21.782Z,6.70
2019-04-06T08:52:51.329Z,6.60
2019-04-06T08:55:24.852Z,6.70
2019-04-06T08:57:54.603Z,6.80
2019-04-06T09:00:29.128Z,6.80
2019-04-06T09:03:02.729Z,6.80
2019-04-06T09:05:37.325Z,6.80
2019-04-06T09:08:12.692Z,6.90
2019-04-06T09:10:48.244Z,6.90
2019-04-06T09:13:21.193Z,7.10
2019-04-06T09:15:51.966Z,6.90
2019-04-06T09:18:22.854Z,6.80
2019-04-06T09:20:56.144Z,6.70
2019-04-06T09:23:28.992Z,6.60
2019-04-06T09:26:00.486Z,6.50
2019-04-06T09:28:36.336Z,6.50
2019-04-06T09:31:08.300Z,6.50
2019-04-06T09:33:44.428Z,6.50
2019-04-06T09:36:17.036Z,6.40
2019-04-06T09:38:46.762Z,6.40
2019-04-06T09:41:22.410Z,6.30
2019-04-06T09:43:55.138Z,6.40
2019-04-06T09:46:41.289Z,6.50
2019-04-06T09:49:34.932Z,6.50
2019-04-06T09:52:20.225Z,6.50
2019-04-06T09:55:20.165Z,6.70
2019-04-06T09:58:22.467Z,6.70
2019-04-06T10:01:19.220Z,7.00
2019-04-06T10:04:06.110Z,6.70
2019-04-06T10:06:55.705Z,7.00
2019-04-06T10:09:40.775Z,6.70
2019-04-06T10:12:39.446Z,6.60
2019-04-06T10:15:30.307Z,6.60
2019-04-06T10:18:30.334Z,6.80
2019-04-06T10:21:26.982Z,6.50
2019-04-06T10:24:14.857Z,6.60
2019-04-06T10:27:01.042Z,6.90
2019-04-06T10:29:50.568Z,7.20
2019-04-06T10:32:58.917Z,7.30
2019-04-06T10:35:52.892Z,7.40
2019-04-06T10:38:43.182Z,7.30
2019-04-06T10:41:21.838Z,7.60
2019-04-06T10:44:17.843Z,7.50
2019-04-06T10:47:00.783Z,7.60
2019-04-06T10:50:00.969Z,7.50
2019-04-06T10:52:44.455Z,7.50
2019-04-06T10:55:38.190Z,7.60
2019-04-06T10:58:26.582Z,7.70
2019-04-06T11:01:16.132Z,7.70
2019-04-06T11:04:10.782Z,7.80
2019-04-06T11:10:27.001Z,7.90
2019-04-06T11:13:16.416Z,8.20
2019-04-06T11:16:05.282Z,8.20
2019-04-06T11:19:02.659Z,8.30
2019-04-06T11:21:56.025Z,8.40
2019-04-06T11:24:48.648Z,8.40
2019-04-06T11:27:50.422Z,8.50
2019-04-06T11:30:40.142Z,8.50
2019-04-06T11:33:24.278Z,8.60
2019-04-06T11:36:14.940Z,8.70
2019-04-06T11:39:11.762Z,8.60
2019-04-06T11:42:04.744Z,8.70
2019-04-06T11:45:01.091Z,8.70
2019-04-06T11:47:55.252Z,8.60
2019-04-06T11:50:49.374Z,8.70
2019-04-06T11:53:27.239Z,8.70
2019-04-06T11:56:21.156Z,8.50
2019-04-06T11:59:16.951Z,8.50
2019-04-06T12:02:05.329Z,8.40
2019-04-06T12:04:57.952Z,8.40
2019-04-06T12:08:00.516Z,8.10
2019-04-06T12:11:04.312Z,8.00
2019-04-06T12:14:10.408Z,8.00
2019-04-06T12:16:59.296Z,8.20
2019-04-06T12:19:55.124Z,8.40
2019-04-06T12:22:50.264Z,8.60
2019-04-06T12:25:47.497Z,8.70
2019-04-06T12:28:49.988Z,8.60
2019-04-06T12:31:38.059Z,8.40
2019-04-06T12:34:32.768Z,8.30
2019-04-06T12:37:31.229Z,8.30
2019-04-06T12:40:12.855Z,8.10
2019-04-06T12:43:05.022Z,8.30
2019-04-06T12:46:10.027Z,8.10
2019-04-06T12:49:00.524Z,8.00
2019-04-06T12:51:49.859Z,7.90
2019-04-06T12:54:41.821Z,7.60
2019-04-06T12:57:36.987Z,7.50
2019-04-06T13:00:29.752Z,7.50
2019-04-06T13:03:20.690Z,7.40
2019-04-06T13:06:09.109Z,7.80
2019-04-06T13:09:00.953Z,7.40
2019-04-06T13:12:09.586Z,7.30
2019-04-06T13:14:50.315Z,7.30
2019-04-06T13:17:51.506Z,7.10
2019-04-06T13:20:46.081Z,7.00
2019-04-06T13:23:31.740Z,7.00
2019-04-06T13:26:26.857Z,6.80
2019-04-06T13:29:05.760Z,6.70
2019-04-06T13:31:54.488Z,6.80
2019-04-06T13:34:35.976Z,6.90
2019-04-06T13:37:22.752Z,6.80
2019-04-06T13:40:02.496Z,6.80
2019-04-06T13:43:00.603Z,6.80
2019-04-06T13:45:46.190Z,6.90
2019-04-06T13:48:41.013Z,6.90
2019-04-06T13:51:29.990Z,6.80
2019-04-06T13:54:19.280Z,7.00
2019-04-06T13:57:13.232Z,7.00
2019-04-06T14:00:35.937Z,7.10
2019-04-06T14:03:31.520Z,6.90
2019-04-06T14:06:19.533Z,7.00
2019-04-06T14:09:14.638Z,6.90
2019-04-06T14:12:05.237Z,7.00
2019-04-06T14:14:54.740Z,6.60
2019-04-06T14:17:52.995Z,6.60
2019-04-06T14:20:43.767Z,6.50
2019-04-06T14:23:40.020Z,6.80
2019-04-06T14:26:29.725Z,6.70
2019-04-06T14:29:21.593Z,6.60
2019-04-06T14:32:21.521Z,6.60
2019-04-06T14:35:21.405Z,7.00
2019-04-06T14:38:13.370Z,7.10
2019-04-06T14:41:01.460Z,7.20
2019-04-06T14:43:50.489Z,7.50
2019-04-06T14:46:38.868Z,7.30
2019-04-06T14:49:55.948Z,7.40
2019-04-06T14:52:37.933Z,7.50
2019-04-06T14:55:35.974Z,7.30
2019-04-06T14:58:22.410Z,7.20
2019-04-06T15:01:11.983Z,7.20
2019-04-06T15:03:55.823Z,7.10
2019-04-06T15:07:09.456Z,7.10
2019-04-06T15:12:59.357Z,7.00
2019-04-06T15:15:37.095Z,7.00
2019-04-06T15:18:17.263Z,6.90
2019-04-06T15:20:57.930Z,6.70
2019-04-06T15:24:00.202Z,6.70
2019-04-06T15:26:52.360Z,6.70
2019-04-06T15:29:44.495Z,6.60
2019-04-06T15:32:49.115Z,6.70
2019-04-06T15:35:41.976Z,6.60
2019-04-06T15:38:36.661Z,6.60
2019-04-06T15:41:24.885Z,6.50
2019-04-06T15:44:19.458Z,6.50
2019-04-06T15:47:07.789Z,6.50
2019-04-06T15:49:57.557Z,6.40
2019-04-06T15:52:49.320Z,6.30
2019-04-06T15:55:48.005Z,6.20
2019-04-06T15:58:24.944Z,6.20
2019-04-06T16:01:20.487Z,6.30
2019-04-06T16:04:18.946Z,6.40
2019-04-06T16:07:32.534Z,6.40
2019-04-06T16:10:31.719Z,6.10
2019-04-06T16:13:31.329Z,6.10
2019-04-06T16:16:11.200Z,6.10
2019-04-06T16:19:06.290Z,6.10
2019-04-06T16:22:04.620Z,6.10
2019-04-06T16:25:00.390Z,6.10
2019-04-06T16:27:51.108Z,6.10
2019-04-06T16:30:41.844Z,5.90
2019-04-06T16:33:31.400Z,5.90
2019-04-06T16:36:21.567Z,5.90
2019-04-06T16:39:16.412Z,5.80
2019-04-06T16:42:06.639Z,5.90
2019-04-06T16:44:55.003Z,5.90
2019-04-06T16:47:47.180Z,5.90
2019-04-06T16:50:49.032Z,5.90
2019-04-06T16:53:36.764Z,5.80
2019-04-06T16:56:17.244Z,5.80
2019-04-06T16:59:13.992Z,5.80
2019-04-06T17:02:23.003Z,5.60
2019-04-06T17:04:56.345Z,5.60
2019-04-06T17:07:33.995Z,5.60
2019-04-06T17:10:21.856Z,5.50
2019-04-06T17:13:12.464Z,5.50
2019-04-06T17:16:03.046Z,5.50
2019-04-06T17:18:53.277Z,5.40
2019-04-06T17:21:36.104Z,5.50
2019-04-06T17:24:25.616Z,5.50
2019-04-06T17:27:27.360Z,5.50
2019-04-06T17:30:16.674Z,5.60
2019-04-06T17:33:10.014Z,5.70
2019-04-06T17:36:07.767Z,5.60
2019-04-06T17:38:49.672Z,5.60
2019-04-06T17:41:46.560Z,5.60
2019-04-06T17:44:55.358Z,5.70
2019-04-06T17:47:44.184Z,5.70
2019-04-06T17:50:41.193Z,5.70
2019-04-06T17:53:30.048Z,5.80
2019-04-06T17:56:18.239Z,5.80
2019-04-06T17:59:12.068Z,5.80
2019-04-06T18:02:03.364Z,5.80
2019-04-06T18:04:48.041Z,5.80
2019-04-06T18:07:37.691Z,5.80
2019-04-06T18:10:18.562Z,5.80
2019-04-06T18:13:16.909Z,5.80
2019-04-06T18:15:51.195Z,5.70
2019-04-06T18:18:24.296Z,5.80
2019-04-06T18:20:56.905Z,5.80
2019-04-06T18:23:33.930Z,5.70
2019-04-06T18:26:07.356Z,5.80
2019-04-06T18:28:39.745Z,5.70
2019-04-06T18:31:26.488Z,5.70
2019-04-06T18:33:59.173Z,5.80
2019-04-06T18:36:43.680Z,5.70
2019-04-06T18:39:15.283Z,5.80
2019-04-06T18:41:47.900Z,5.80
2019-04-06T18:44:21.296Z,5.80
2019-04-06T18:46:51.853Z,5.80
2019-04-06T18:49:27.515Z,5.80
2019-04-06T18:51:59.708Z,5.80
2019-04-06T18:54:30.229Z,5.80
2019-04-06T18:57:03.780Z,5.80
2019-04-06T18:59:34.743Z,5.80
2019-04-06T19:02:06.129Z,5.80
2019-04-06T19:04:36.654Z,5.90
2019-04-06T19:07:08.592Z,5.80
2019-04-06T19:09:40.674Z,5.90
2019-04-06T19:12:15.727Z,5.90
2019-04-06T19:14:49.327Z,5.90
2019-04-06T19:17:21.469Z,6.00
2019-04-06T19:19:57.064Z,5.90
2019-04-06T19:22:29.626Z,5.90
2019-04-06T19:25:01.747Z,5.90
2019-04-06T19:27:32.923Z,5.80
2019-04-06T19:30:02.193Z,5.80
2019-04-06T19:32:36.939Z,5.80
2019-04-06T19:35:11.540Z,5.70
2019-04-06T19:37:44.640Z,5.70
2019-04-06T19:40:18.051Z,5.70
2019-04-06T19:42:51.279Z,5.80
2019-04-06T19:45:24.961Z,5.70
2019-04-06T19:47:58.678Z,5.70
2019-04-06T19:50:30.480Z,5.70
2019-04-06T19:53:02.208Z,5.70
2019-04-06T19:55:33.495Z,5.70
2019-04-06T19:58:06.009Z,5.70
2019-04-06T20:00:39.115Z,5.80
2019-04-06T20:03:11.487Z,5.80
2019-04-06T20:05:43.863Z,5.70
2019-04-06T20:08:18.484Z,5.60
2019-04-06T20:10:54.457Z,5.60
2019-04-06T20:13:29.449Z,5.60
2019-04-06T20:16:03.061Z,5.60
2019-04-06T20:18:35.092Z,5.60
2019-04-06T20:21:08.673Z,5.60
2019-04-06T20:24:00.602Z,5.60
2019-04-06T20:26:33.812Z,5.60
2019-04-06T20:29:07.991Z,5.60
2019-04-06T20:31:40.711Z,5.70
2019-04-06T20:34:14.127Z,5.60
2019-04-06T20:36:51.142Z,5.60
2019-04-06T20:39:23.600Z,5.20
2019-04-06T20:41:57.501Z,5.00
2019-04-06T20:44:30.845Z,4.90
2019-04-06T20:47:05.100Z,4.80
2019-04-06T20:49:40.104Z,4.80
2019-04-06T20:52:11.794Z,4.70
2019-04-06T20:54:44.273Z,4.60
2019-04-06T20:57:27.240Z,4.50
2019-04-06T21:00:00.778Z,4.40
2019-04-06T21:02:37.164Z,4.40
2019-04-06T21:05:08.615Z,4.40
2019-04-06T21:07:42.049Z,4.40
2019-04-06T21:10:13.841Z,4.40
2019-04-06T21:12:45.317Z,4.30
2019-04-06T21:15:21.083Z,4.30
2019-04-06T21:17:53.772Z,4.20
2019-04-06T21:20:28.878Z,4.30
2019-04-06T21:23:01.631Z,4.30
2019-04-06T21:25:33.964Z,4.30
2019-04-06T21:28:07.762Z,4.10
2019-04-06T21:30:39.080Z,4.10
2019-04-06T21:33:13.187Z,4.20
2019-04-06T21:35:44.667Z,4.10
2019-04-06T21:38:17.112Z,4.10
2019-04-06T21:40:48.990Z,4.10
2019-04-06T21:43:19.928Z,4.10
2019-04-06T21:45:53.529Z,4.10
2019-04-06T21:48:27.512Z,4.00
2019-04-06T21:51:00.038Z,4.00
2019-04-06T21:53:30.811Z,4.00
2019-04-06T21:56:07.045Z,3.90
2019-04-06T21:58:35.986Z,3.90
2019-04-06T22:01:09.014Z,3.90
2019-04-06T22:03:42.972Z,3.90
2019-04-06T22:06:14.618Z,3.90
2019-04-06T22:08:46.735Z,3.90
2019-04-06T22:11:18.695Z,3.80
2019-04-06T22:13:52.189Z,3.80
2019-04-06T22:16:24.826Z,3.80
2019-04-06T22:18:56.904Z,3.80
2019-04-06T22:21:30.589Z,3.80
2019-04-06T22:24:01.439Z,3.70
2019-04-06T22:26:34.900Z,3.70
2019-04-06T22:29:08.175Z,3.80
2019-04-06T22:31:39.948Z,3.70
2019-04-06T22:34:11.014Z,3.70
2019-04-06T22:36:47.942Z,3.70
2019-04-06T22:39:22.506Z,3.70
2019-04-06T22:41:55.026Z,3.70
2019-04-06T22:44:31.685Z,3.70
2019-04-06T22:47:07.449Z,3.70
2019-04-06T22:49:41.230Z,3.70
2019-04-06T22:52:15.634Z,3.60
2019-04-06T22:54:44.912Z,3.60
2019-04-06T22:57:16.958Z,3.60
2019-04-06T22:59:49.443Z,3.60
2019-04-06T23:02:21.431Z,3.60
2019-04-06T23:05:13.416Z,3.60
2019-04-06T23:07:45.948Z,3.70
2019-04-06T23:10:21.496Z,3.60
2019-04-06T23:12:53.043Z,3.60
2019-04-06T23:15:26.121Z,3.60
2019-04-06T23:17:55.723Z,3.50
2019-04-06T23:20:37.749Z,3.60
2019-04-06T23:23:09.757Z,3.60
2019-04-06T23:25:43.732Z,3.60
2019-04-06T23:28:18.360Z,3.60
2019-04-06T23:30:50.838Z,3.50
2019-04-06T23:33:26.893Z,3.50
2019-04-06T23:36:04.344Z,3.60
2019-04-06T23:38:35.309Z,3.50
2019-04-06T23:41:06.769Z,3.40
2019-04-06T23:43:41.533Z,3.40
2019-04-06T23:46:17.782Z,3.40
2019-04-06T23:48:49.803Z,3.40
2019-04-06T23:51:23.374Z,3.40
2019-04-06T23:54:00.198Z,3.50
2019-04-06T23:56:31.211Z,3.50
2019-04-06T23:59:04.932Z,3.60
